sensor_id;sensor_type;location;lat;lon;timestamp;P1;durP1;ratioP1;P2;durP2;ratioP2
64297;SDS011;50639;53.270;7.956;2022-08-21T00:01:50;13.63;;;6.75;;
64297;SDS011;50639;53.270;7.956;2022-08-21T00:04:15;13.37;;;6.67;;
64297;SDS011;50639;53.270;7.956;2022-08-21T00:06:41;11.47;;;6.27;;
64297;SDS011;50639;53.270;7.956;2022-08-21T00:09:07;11.63;;;5.87;;
64297;SDS011;50639;53.270;7.956;2022-08-21T00:11:34;11.80;;;6.00;;
64297;SDS011;50639;53.270;7.956;2022-08-21T00:14:01;10.48;;;5.45;;
64297;SDS011;50639;53.270;7.956;2022-08-21T00:16:26;13.30;;;5.85;;
64297;SDS011;50639;53.270;7.956;2022-08-21T00:18:51;12.30;;;5.75;;
64297;SDS011;50639;53.270;7.956;2022-08-21T00:21:17;9.53;;;5.10;;
64297;SDS011;50639;53.270;7.956;2022-08-21T00:23:42;11.82;;;5.22;;
64297;SDS011;50639;53.270;7.956;2022-08-21T00:26:07;7.68;;;4.57;;
64297;SDS011;50639;53.270;7.956;2022-08-21T00:28:33;9.23;;;5.13;;
64297;SDS011;50639;53.270;7.956;2022-08-21T00:30:58;10.23;;;5.00;;
64297;SDS011;50639;53.270;7.956;2022-08-21T00:33:24;11.10;;;6.20;;
64297;SDS011;50639;53.270;7.956;2022-08-21T00:35:50;13.60;;;7.53;;
64297;SDS011;50639;53.270;7.956;2022-08-21T00:38:15;11.10;;;6.68;;
64297;SDS011;50639;53.270;7.956;2022-08-21T00:43:06;11.20;;;6.00;;
64297;SDS011;50639;53.270;7.956;2022-08-21T00:45:32;7.53;;;3.97;;
64297;SDS011;50639;53.270;7.956;2022-08-21T00:47:58;7.28;;;3.90;;
64297;SDS011;50639;53.270;7.956;2022-08-21T00:50:25;7.60;;;4.05;;
64297;SDS011;50639;53.270;7.956;2022-08-21T00:52:51;7.43;;;3.40;;
64297;SDS011;50639;53.270;7.956;2022-08-21T00:55:17;7.63;;;3.63;;
64297;SDS011;50639;53.270;7.956;2022-08-21T00:57:44;9.40;;;3.43;;
64297;SDS011;50639;53.270;7.956;2022-08-21T01:00:14;6.43;;;3.25;;
64297;SDS011;50639;53.270;7.956;2022-08-21T01:02:39;6.78;;;3.55;;
64297;SDS011;50639;53.270;7.956;2022-08-21T01:05:05;4.43;;;2.80;;
64297;SDS011;50639;53.270;7.956;2022-08-21T01:07:30;6.53;;;2.92;;
64297;SDS011;50639;53.270;7.956;2022-08-21T01:09:57;5.22;;;2.88;;
64297;SDS011;50639;53.270;7.956;2022-08-21T01:12:22;7.72;;;3.42;;
64297;SDS011;50639;53.270;7.956;2022-08-21T01:14:48;6.30;;;3.10;;
64297;SDS011;50639;53.270;7.956;2022-08-21T01:17:13;6.68;;;2.80;;
64297;SDS011;50639;53.270;7.956;2022-08-21T01:19:39;7.13;;;2.95;;
64297;SDS011;50639;53.270;7.956;2022-08-21T01:22:05;6.00;;;2.83;;
64297;SDS011;50639;53.270;7.956;2022-08-21T01:24:31;6.18;;;2.92;;
64297;SDS011;50639;53.270;7.956;2022-08-21T01:26:56;6.03;;;2.78;;
64297;SDS011;50639;53.270;7.956;2022-08-21T01:29:26;5.00;;;2.50;;
64297;SDS011;50639;53.270;7.956;2022-08-21T01:31:53;7.63;;;2.80;;
64297;SDS011;50639;53.270;7.956;2022-08-21T01:34:19;5.35;;;2.50;;
64297;SDS011;50639;53.270;7.956;2022-08-21T01:36:45;9.90;;;2.65;;
64297;SDS011;50639;53.270;7.956;2022-08-21T01:39:11;3.58;;;2.42;;
64297;SDS011;50639;53.270;7.956;2022-08-21T01:41:37;3.20;;;2.15;;
64297;SDS011;50639;53.270;7.956;2022-08-21T01:44:02;4.93;;;2.50;;
64297;SDS011;50639;53.270;7.956;2022-08-21T01:46:27;4.25;;;2.60;;
64297;SDS011;50639;53.270;7.956;2022-08-21T01:48:52;5.47;;;2.72;;
64297;SDS011;50639;53.270;7.956;2022-08-21T01:51:18;7.20;;;2.70;;
64297;SDS011;50639;53.270;7.956;2022-08-21T01:53:43;8.88;;;2.85;;
64297;SDS011;50639;53.270;7.956;2022-08-21T01:56:10;4.20;;;2.25;;
64297;SDS011;50639;53.270;7.956;2022-08-21T01:58:36;6.78;;;2.47;;
64297;SDS011;50639;53.270;7.956;2022-08-21T02:01:03;5.82;;;2.50;;
64297;SDS011;50639;53.270;7.956;2022-08-21T02:03:28;6.32;;;2.63;;
64297;SDS011;50639;53.270;7.956;2022-08-21T02:05:54;6.07;;;2.95;;
64297;SDS011;50639;53.270;7.956;2022-08-21T02:08:19;6.93;;;2.80;;
64297;SDS011;50639;53.270;7.956;2022-08-21T02:10:48;5.65;;;2.67;;
64297;SDS011;50639;53.270;7.956;2022-08-21T02:13:14;5.50;;;2.65;;
64297;SDS011;50639;53.270;7.956;2022-08-21T02:15:39;5.20;;;2.28;;
64297;SDS011;50639;53.270;7.956;2022-08-21T02:18:04;9.75;;;3.63;;
64297;SDS011;50639;53.270;7.956;2022-08-21T02:20:35;10.73;;;3.17;;
64297;SDS011;50639;53.270;7.956;2022-08-21T02:23:01;7.45;;;3.65;;
64297;SDS011;50639;53.270;7.956;2022-08-21T02:25:27;8.18;;;3.28;;
64297;SDS011;50639;53.270;7.956;2022-08-21T02:27:53;10.80;;;3.40;;
64297;SDS011;50639;53.270;7.956;2022-08-21T02:30:22;9.15;;;3.70;;
64297;SDS011;50639;53.270;7.956;2022-08-21T02:32:48;7.57;;;3.55;;
64297;SDS011;50639;53.270;7.956;2022-08-21T02:35:13;8.52;;;3.85;;
64297;SDS011;50639;53.270;7.956;2022-08-21T02:37:58;10.20;;;3.65;;
64297;SDS011;50639;53.270;7.956;2022-08-21T02:40:25;8.13;;;3.30;;
64297;SDS011;50639;53.270;7.956;2022-08-21T02:42:51;9.13;;;4.03;;
64297;SDS011;50639;53.270;7.956;2022-08-21T02:45:16;7.68;;;3.10;;
64297;SDS011;50639;53.270;7.956;2022-08-21T02:47:52;10.23;;;3.85;;
64297;SDS011;50639;53.270;7.956;2022-08-21T02:50:23;9.82;;;3.50;;
64297;SDS011;50639;53.270;7.956;2022-08-21T02:55:18;8.40;;;3.40;;
64297;SDS011;50639;53.270;7.956;2022-08-21T02:57:45;12.45;;;3.67;;
64297;SDS011;50639;53.270;7.956;2022-08-21T03:00:11;7.22;;;3.20;;
64297;SDS011;50639;53.270;7.956;2022-08-21T03:02:38;7.20;;;3.45;;
64297;SDS011;50639;53.270;7.956;2022-08-21T03:05:03;6.72;;;3.10;;
64297;SDS011;50639;53.270;7.956;2022-08-21T03:07:29;7.40;;;3.30;;
64297;SDS011;50639;53.270;7.956;2022-08-21T03:09:55;6.07;;;3.08;;
64297;SDS011;50639;53.270;7.956;2022-08-21T03:12:20;6.20;;;3.30;;
64297;SDS011;50639;53.270;7.956;2022-08-21T03:14:45;5.88;;;2.83;;
64297;SDS011;50639;53.270;7.956;2022-08-21T03:17:11;4.97;;;2.70;;
64297;SDS011;50639;53.270;7.956;2022-08-21T03:19:36;8.33;;;3.37;;
64297;SDS011;50639;53.270;7.956;2022-08-21T03:22:01;9.23;;;3.07;;
64297;SDS011;50639;53.270;7.956;2022-08-21T03:24:26;6.57;;;3.33;;
64297;SDS011;50639;53.270;7.956;2022-08-21T03:26:52;8.23;;;3.30;;
64297;SDS011;50639;53.270;7.956;2022-08-21T03:29:17;6.85;;;3.25;;
64297;SDS011;50639;53.270;7.956;2022-08-21T03:31:43;5.73;;;3.20;;
64297;SDS011;50639;53.270;7.956;2022-08-21T03:34:08;13.70;;;3.50;;
64297;SDS011;50639;53.270;7.956;2022-08-21T03:36:33;6.88;;;3.20;;
64297;SDS011;50639;53.270;7.956;2022-08-21T03:38:59;6.65;;;3.25;;
64297;SDS011;50639;53.270;7.956;2022-08-21T03:41:24;7.28;;;3.53;;
64297;SDS011;50639;53.270;7.956;2022-08-21T03:43:49;7.00;;;3.20;;
64297;SDS011;50639;53.270;7.956;2022-08-21T03:46:15;7.93;;;3.40;;
64297;SDS011;50639;53.270;7.956;2022-08-21T03:48:40;7.55;;;4.07;;
64297;SDS011;50639;53.270;7.956;2022-08-21T03:51:06;10.20;;;3.92;;
64297;SDS011;50639;53.270;7.956;2022-08-21T03:53:31;8.18;;;3.95;;
64297;SDS011;50639;53.270;7.956;2022-08-21T03:55:57;11.23;;;3.75;;
64297;SDS011;50639;53.270;7.956;2022-08-21T03:58:23;7.60;;;3.85;;
64297;SDS011;50639;53.270;7.956;2022-08-21T04:00:50;7.43;;;3.90;;
64297;SDS011;50639;53.270;7.956;2022-08-21T04:03:17;9.18;;;3.67;;
64297;SDS011;50639;53.270;7.956;2022-08-21T04:05:42;8.88;;;3.60;;
64297;SDS011;50639;53.270;7.956;2022-08-21T04:08:10;6.03;;;3.78;;
64297;SDS011;50639;53.270;7.956;2022-08-21T04:10:36;9.15;;;4.07;;
64297;SDS011;50639;53.270;7.956;2022-08-21T04:13:02;6.63;;;3.67;;
64297;SDS011;50639;53.270;7.956;2022-08-21T04:15:27;6.68;;;3.78;;
64297;SDS011;50639;53.270;7.956;2022-08-21T04:17:53;9.15;;;3.45;;
64297;SDS011;50639;53.270;7.956;2022-08-21T04:20:19;5.57;;;3.20;;
64297;SDS011;50639;53.270;7.956;2022-08-21T04:22:46;7.85;;;3.35;;
64297;SDS011;50639;53.270;7.956;2022-08-21T04:25:13;5.90;;;3.72;;
64297;SDS011;50639;53.270;7.956;2022-08-21T04:27:38;8.50;;;3.70;;
64297;SDS011;50639;53.270;7.956;2022-08-21T04:30:05;9.52;;;3.75;;
64297;SDS011;50639;53.270;7.956;2022-08-21T04:32:30;6.90;;;3.88;;
64297;SDS011;50639;53.270;7.956;2022-08-21T04:35:03;9.52;;;3.72;;
64297;SDS011;50639;53.270;7.956;2022-08-21T04:37:29;9.35;;;4.25;;
64297;SDS011;50639;53.270;7.956;2022-08-21T04:39:54;9.18;;;4.82;;
64297;SDS011;50639;53.270;7.956;2022-08-21T04:42:23;9.18;;;4.53;;
64297;SDS011;50639;53.270;7.956;2022-08-21T04:44:48;9.20;;;4.93;;
64297;SDS011;50639;53.270;7.956;2022-08-21T04:47:14;11.40;;;4.70;;
64297;SDS011;50639;53.270;7.956;2022-08-21T04:52:06;10.77;;;4.90;;
64297;SDS011;50639;53.270;7.956;2022-08-21T04:54:32;7.00;;;4.20;;
64297;SDS011;50639;53.270;7.956;2022-08-21T04:56:59;7.53;;;4.60;;
64297;SDS011;50639;53.270;7.956;2022-08-21T04:59:30;8.30;;;4.45;;
64297;SDS011;50639;53.270;7.956;2022-08-21T05:01:56;9.05;;;5.03;;
64297;SDS011;50639;53.270;7.956;2022-08-21T05:04:24;10.90;;;4.80;;
64297;SDS011;50639;53.270;7.956;2022-08-21T05:06:50;9.68;;;4.53;;
64297;SDS011;50639;53.270;7.956;2022-08-21T05:09:17;52.67;;;36.97;;
64297;SDS011;50639;53.270;7.956;2022-08-21T05:11:43;20.23;;;14.38;;
64297;SDS011;50639;53.270;7.956;2022-08-21T05:14:09;16.63;;;7.47;;
64297;SDS011;50639;53.270;7.956;2022-08-21T05:16:35;14.63;;;6.90;;
64297;SDS011;50639;53.270;7.956;2022-08-21T05:19:00;11.23;;;6.35;;
64297;SDS011;50639;53.270;7.956;2022-08-21T05:21:26;21.73;;;7.20;;
64297;SDS011;50639;53.270;7.956;2022-08-21T05:23:51;11.57;;;6.20;;
64297;SDS011;50639;53.270;7.956;2022-08-21T05:26:16;11.23;;;6.50;;
64297;SDS011;50639;53.270;7.956;2022-08-21T05:28:41;10.20;;;6.10;;
64297;SDS011;50639;53.270;7.956;2022-08-21T05:31:06;9.40;;;6.23;;
64297;SDS011;50639;53.270;7.956;2022-08-21T05:33:32;14.10;;;7.43;;
64297;SDS011;50639;53.270;7.956;2022-08-21T05:35:57;14.13;;;7.70;;
64297;SDS011;50639;53.270;7.956;2022-08-21T05:38:23;16.95;;;7.05;;
64297;SDS011;50639;53.270;7.956;2022-08-21T05:40:48;12.88;;;7.65;;
64297;SDS011;50639;53.270;7.956;2022-08-21T05:43:14;12.30;;;7.23;;
64297;SDS011;50639;53.270;7.956;2022-08-21T05:45:40;17.17;;;7.72;;
64297;SDS011;50639;53.270;7.956;2022-08-21T05:48:06;18.60;;;8.80;;
64297;SDS011;50639;53.270;7.956;2022-08-21T05:50:31;13.93;;;7.78;;
64297;SDS011;50639;53.270;7.956;2022-08-21T05:52:57;14.70;;;7.70;;
64297;SDS011;50639;53.270;7.956;2022-08-21T05:55:22;23.03;;;8.43;;
64297;SDS011;50639;53.270;7.956;2022-08-21T05:57:47;18.17;;;8.00;;
64297;SDS011;50639;53.270;7.956;2022-08-21T06:00:13;18.55;;;7.10;;
64297;SDS011;50639;53.270;7.956;2022-08-21T06:02:39;13.50;;;6.63;;
64297;SDS011;50639;53.270;7.956;2022-08-21T06:05:05;18.55;;;7.65;;
64297;SDS011;50639;53.270;7.956;2022-08-21T06:07:30;16.13;;;7.40;;
64297;SDS011;50639;53.270;7.956;2022-08-21T06:09:55;15.80;;;7.30;;
64297;SDS011;50639;53.270;7.956;2022-08-21T06:12:20;15.93;;;6.60;;
64297;SDS011;50639;53.270;7.956;2022-08-21T06:14:46;21.10;;;7.00;;
64297;SDS011;50639;53.270;7.956;2022-08-21T06:17:11;18.27;;;7.78;;
64297;SDS011;50639;53.270;7.956;2022-08-21T06:19:37;21.52;;;6.72;;
64297;SDS011;50639;53.270;7.956;2022-08-21T06:22:03;18.92;;;6.85;;
64297;SDS011;50639;53.270;7.956;2022-08-21T06:24:28;13.93;;;6.47;;
64297;SDS011;50639;53.270;7.956;2022-08-21T06:26:54;15.02;;;6.47;;
64297;SDS011;50639;53.270;7.956;2022-08-21T06:29:19;17.02;;;6.68;;
64297;SDS011;50639;53.270;7.956;2022-08-21T06:31:45;13.52;;;6.15;;
64297;SDS011;50639;53.270;7.956;2022-08-21T06:34:11;14.48;;;5.90;;
64297;SDS011;50639;53.270;7.956;2022-08-21T06:36:36;15.17;;;5.93;;
64297;SDS011;50639;53.270;7.956;2022-08-21T06:39:02;13.93;;;5.78;;
64297;SDS011;50639;53.270;7.956;2022-08-21T06:41:27;14.68;;;5.05;;
64297;SDS011;50639;53.270;7.956;2022-08-21T06:43:53;14.13;;;5.07;;
64297;SDS011;50639;53.270;7.956;2022-08-21T06:46:19;11.88;;;5.43;;
64297;SDS011;50639;53.270;7.956;2022-08-21T06:48:44;13.85;;;5.07;;
64297;SDS011;50639;53.270;7.956;2022-08-21T06:51:09;9.23;;;4.33;;
64297;SDS011;50639;53.270;7.956;2022-08-21T06:53:34;17.63;;;4.80;;
64297;SDS011;50639;53.270;7.956;2022-08-21T06:56:00;19.33;;;5.22;;
64297;SDS011;50639;53.270;7.956;2022-08-21T06:58:25;16.00;;;4.90;;
64297;SDS011;50639;53.270;7.956;2022-08-21T07:00:51;18.95;;;5.60;;
64297;SDS011;50639;53.270;7.956;2022-08-21T07:03:58;12.70;;;4.90;;
64297;SDS011;50639;53.270;7.956;2022-08-21T07:06:05;14.95;;;4.60;;
64297;SDS011;50639;53.270;7.956;2022-08-21T07:08:31;17.55;;;4.53;;
64297;SDS011;50639;53.270;7.956;2022-08-21T07:10:57;13.05;;;5.07;;
64297;SDS011;50639;53.270;7.956;2022-08-21T07:13:22;11.32;;;4.75;;
64297;SDS011;50639;53.270;7.956;2022-08-21T07:15:48;9.88;;;3.92;;
64297;SDS011;50639;53.270;7.956;2022-08-21T07:18:13;14.82;;;4.75;;
64297;SDS011;50639;53.270;7.956;2022-08-21T07:20:38;13.50;;;4.57;;
64297;SDS011;50639;53.270;7.956;2022-08-21T07:23:05;16.00;;;4.47;;
64297;SDS011;50639;53.270;7.956;2022-08-21T07:25:31;10.40;;;4.95;;
64297;SDS011;50639;53.270;7.956;2022-08-21T07:27:56;10.43;;;3.90;;
64297;SDS011;50639;53.270;7.956;2022-08-21T07:30:22;10.50;;;4.15;;
64297;SDS011;50639;53.270;7.956;2022-08-21T07:32:47;13.43;;;4.10;;
64297;SDS011;50639;53.270;7.956;2022-08-21T07:35:14;12.38;;;4.18;;
64297;SDS011;50639;53.270;7.956;2022-08-21T07:37:40;16.73;;;4.57;;
64297;SDS011;50639;53.270;7.956;2022-08-21T07:40:05;13.03;;;4.47;;
64297;SDS011;50639;53.270;7.956;2022-08-21T07:42:30;19.52;;;8.20;;
64297;SDS011;50639;53.270;7.956;2022-08-21T07:44:56;13.30;;;6.97;;
64297;SDS011;50639;53.270;7.956;2022-08-21T07:47:21;12.27;;;4.93;;
64297;SDS011;50639;53.270;7.956;2022-08-21T07:49:46;12.93;;;4.40;;
64297;SDS011;50639;53.270;7.956;2022-08-21T07:52:11;14.20;;;4.67;;
64297;SDS011;50639;53.270;7.956;2022-08-21T07:54:37;14.77;;;4.30;;
64297;SDS011;50639;53.270;7.956;2022-08-21T07:57:02;13.05;;;4.43;;
64297;SDS011;50639;53.270;7.956;2022-08-21T07:59:28;12.95;;;4.50;;
64297;SDS011;50639;53.270;7.956;2022-08-21T08:01:53;11.20;;;4.47;;
64297;SDS011;50639;53.270;7.956;2022-08-21T08:04:19;12.30;;;4.03;;
64297;SDS011;50639;53.270;7.956;2022-08-21T08:06:44;11.52;;;4.43;;
64297;SDS011;50639;53.270;7.956;2022-08-21T08:09:10;19.65;;;4.88;;
64297;SDS011;50639;53.270;7.956;2022-08-21T08:11:36;18.83;;;5.17;;
64297;SDS011;50639;53.270;7.956;2022-08-21T08:14:02;14.43;;;4.78;;
64297;SDS011;50639;53.270;7.956;2022-08-21T08:16:28;16.83;;;4.43;;
64297;SDS011;50639;53.270;7.956;2022-08-21T08:18:54;20.57;;;4.90;;
64297;SDS011;50639;53.270;7.956;2022-08-21T08:21:20;15.45;;;5.00;;
64297;SDS011;50639;53.270;7.956;2022-08-21T08:23:46;9.75;;;4.07;;
64297;SDS011;50639;53.270;7.956;2022-08-21T08:26:11;12.85;;;4.35;;
64297;SDS011;50639;53.270;7.956;2022-08-21T08:28:37;11.38;;;3.65;;
64297;SDS011;50639;53.270;7.956;2022-08-21T08:31:02;16.50;;;4.55;;
64297;SDS011;50639;53.270;7.956;2022-08-21T08:33:27;11.77;;;4.28;;
64297;SDS011;50639;53.270;7.956;2022-08-21T08:35:53;14.70;;;3.85;;
64297;SDS011;50639;53.270;7.956;2022-08-21T08:38:20;15.40;;;4.13;;
64297;SDS011;50639;53.270;7.956;2022-08-21T08:43:25;17.05;;;3.90;;
64297;SDS011;50639;53.270;7.956;2022-08-21T08:45:51;18.02;;;4.10;;
64297;SDS011;50639;53.270;7.956;2022-08-21T08:48:26;19.98;;;4.63;;
64297;SDS011;50639;53.270;7.956;2022-08-21T08:50:56;14.85;;;3.95;;
64297;SDS011;50639;53.270;7.956;2022-08-21T08:53:28;9.40;;;3.35;;
64297;SDS011;50639;53.270;7.956;2022-08-21T08:55:54;9.60;;;3.17;;
64297;SDS011;50639;53.270;7.956;2022-08-21T08:58:28;11.65;;;3.45;;
64297;SDS011;50639;53.270;7.956;2022-08-21T09:00:55;12.40;;;4.72;;
64297;SDS011;50639;53.270;7.956;2022-08-21T09:03:21;14.15;;;4.00;;
64297;SDS011;50639;53.270;7.956;2022-08-21T09:10:51;10.40;;;3.60;;
64297;SDS011;50639;53.270;7.956;2022-08-21T09:13:34;11.80;;;3.42;;
64297;SDS011;50639;53.270;7.956;2022-08-21T09:18:30;13.45;;;4.10;;
64297;SDS011;50639;53.270;7.956;2022-08-21T09:23:29;11.23;;;3.72;;
64297;SDS011;50639;53.270;7.956;2022-08-21T09:28:42;10.18;;;3.10;;
64297;SDS011;50639;53.270;7.956;2022-08-21T09:31:08;14.35;;;3.75;;
64297;SDS011;50639;53.270;7.956;2022-08-21T09:33:36;13.50;;;3.53;;
64297;SDS011;50639;53.270;7.956;2022-08-21T09:36:01;16.75;;;4.45;;
64297;SDS011;50639;53.270;7.956;2022-08-21T09:38:28;10.55;;;3.33;;
64297;SDS011;50639;53.270;7.956;2022-08-21T09:41:01;15.63;;;3.50;;
64297;SDS011;50639;53.270;7.956;2022-08-21T09:43:28;15.48;;;4.45;;
64297;SDS011;50639;53.270;7.956;2022-08-21T09:46:02;12.93;;;3.20;;
64297;SDS011;50639;53.270;7.956;2022-08-21T09:48:27;13.00;;;3.22;;
64297;SDS011;50639;53.270;7.956;2022-08-21T09:51:04;10.90;;;3.10;;
64297;SDS011;50639;53.270;7.956;2022-08-21T09:53:30;11.52;;;3.33;;
64297;SDS011;50639;53.270;7.956;2022-08-21T09:55:59;13.23;;;3.15;;
64297;SDS011;50639;53.270;7.956;2022-08-21T09:58:48;10.88;;;3.15;;
64297;SDS011;50639;53.270;7.956;2022-08-21T10:01:15;9.32;;;3.40;;
64297;SDS011;50639;53.270;7.956;2022-08-21T10:03:40;10.13;;;2.85;;
64297;SDS011;50639;53.270;7.956;2022-08-21T10:06:07;12.80;;;3.65;;
64297;SDS011;50639;53.270;7.956;2022-08-21T10:08:35;11.63;;;3.22;;
64297;SDS011;50639;53.270;7.956;2022-08-21T10:11:10;13.32;;;3.30;;
64297;SDS011;50639;53.270;7.956;2022-08-21T10:13:49;14.43;;;4.18;;
64297;SDS011;50639;53.270;7.956;2022-08-21T10:23:48;11.13;;;3.30;;
64297;SDS011;50639;53.270;7.956;2022-08-21T10:36:40;11.55;;;2.88;;
64297;SDS011;50639;53.270;7.956;2022-08-21T10:39:31;6.47;;;2.60;;
64297;SDS011;50639;53.270;7.956;2022-08-21T10:44:58;12.93;;;2.67;;
64297;SDS011;50639;53.270;7.956;2022-08-21T10:57:44;7.78;;;2.60;;
64297;SDS011;50639;53.270;7.956;2022-08-21T11:00:21;11.43;;;3.28;;
64297;SDS011;50639;53.270;7.956;2022-08-21T11:05:33;8.57;;;2.80;;
64297;SDS011;50639;53.270;7.956;2022-08-21T11:08:02;9.25;;;2.97;;
64297;SDS011;50639;53.270;7.956;2022-08-21T11:10:31;12.73;;;2.90;;
64297;SDS011;50639;53.270;7.956;2022-08-21T11:19:02;9.60;;;2.70;;
64297;SDS011;50639;53.270;7.956;2022-08-21T11:29:35;7.07;;;2.50;;
64297;SDS011;50639;53.270;7.956;2022-08-21T11:34:30;10.93;;;2.90;;
64297;SDS011;50639;53.270;7.956;2022-08-21T11:37:05;9.55;;;2.83;;
64297;SDS011;50639;53.270;7.956;2022-08-21T11:39:38;7.85;;;3.25;;
64297;SDS011;50639;53.270;7.956;2022-08-21T11:42:12;6.75;;;2.53;;
64297;SDS011;50639;53.270;7.956;2022-08-21T11:44:54;6.35;;;2.47;;
64297;SDS011;50639;53.270;7.956;2022-08-21T11:47:33;8.15;;;2.65;;
64297;SDS011;50639;53.270;7.956;2022-08-21T11:52:48;9.27;;;2.95;;
64297;SDS011;50639;53.270;7.956;2022-08-21T11:55:16;8.50;;;2.40;;
64297;SDS011;50639;53.270;7.956;2022-08-21T11:58:29;6.90;;;2.65;;
64297;SDS011;50639;53.270;7.956;2022-08-21T12:00:36;9.52;;;2.42;;
64297;SDS011;50639;53.270;7.956;2022-08-21T12:03:08;7.50;;;2.55;;
64297;SDS011;50639;53.270;7.956;2022-08-21T12:05:41;8.88;;;2.47;;
64297;SDS011;50639;53.270;7.956;2022-08-21T12:08:13;9.25;;;2.50;;
64297;SDS011;50639;53.270;7.956;2022-08-21T12:10:41;7.32;;;2.53;;
64297;SDS011;50639;53.270;7.956;2022-08-21T12:13:08;9.38;;;2.72;;
64297;SDS011;50639;53.270;7.956;2022-08-21T12:15:34;7.93;;;2.67;;
64297;SDS011;50639;53.270;7.956;2022-08-21T12:18:00;7.10;;;2.60;;
64297;SDS011;50639;53.270;7.956;2022-08-21T12:23:04;9.65;;;2.78;;
64297;SDS011;50639;53.270;7.956;2022-08-21T12:25:39;9.18;;;3.13;;
64297;SDS011;50639;53.270;7.956;2022-08-21T12:28:08;10.93;;;2.90;;
64297;SDS011;50639;53.270;7.956;2022-08-21T12:30:36;8.10;;;2.30;;
64297;SDS011;50639;53.270;7.956;2022-08-21T12:33:03;7.70;;;2.50;;
64297;SDS011;50639;53.270;7.956;2022-08-21T12:35:39;8.35;;;2.70;;
64297;SDS011;50639;53.270;7.956;2022-08-21T12:38:26;6.93;;;2.35;;
64297;SDS011;50639;53.270;7.956;2022-08-21T12:40:56;8.43;;;2.40;;
64297;SDS011;50639;53.270;7.956;2022-08-21T12:43:27;7.28;;;2.53;;
64297;SDS011;50639;53.270;7.956;2022-08-21T12:45:53;5.03;;;2.20;;
64297;SDS011;50639;53.270;7.956;2022-08-21T12:48:27;6.30;;;2.30;;
64297;SDS011;50639;53.270;7.956;2022-08-21T12:50:55;5.72;;;2.17;;
64297;SDS011;50639;53.270;7.956;2022-08-21T12:55:53;10.75;;;2.50;;
64297;SDS011;50639;53.270;7.956;2022-08-21T12:58:25;10.07;;;2.92;;
64297;SDS011;50639;53.270;7.956;2022-08-21T13:00:52;5.57;;;2.10;;
64297;SDS011;50639;53.270;7.956;2022-08-21T13:03:17;6.90;;;2.30;;
64297;SDS011;50639;53.270;7.956;2022-08-21T13:05:43;11.00;;;2.60;;
64297;SDS011;50639;53.270;7.956;2022-08-21T13:08:09;6.82;;;2.60;;
64297;SDS011;50639;53.270;7.956;2022-08-21T13:10:35;4.93;;;2.08;;
64297;SDS011;50639;53.270;7.956;2022-08-21T13:13:03;5.05;;;2.20;;
64297;SDS011;50639;53.270;7.956;2022-08-21T13:15:31;7.47;;;2.30;;
64297;SDS011;50639;53.270;7.956;2022-08-21T13:17:57;8.15;;;2.72;;
64297;SDS011;50639;53.270;7.956;2022-08-21T13:20:34;6.63;;;2.20;;
64297;SDS011;50639;53.270;7.956;2022-08-21T13:23:01;4.03;;;1.85;;
64297;SDS011;50639;53.270;7.956;2022-08-21T13:25:28;8.70;;;2.63;;
64297;SDS011;50639;53.270;7.956;2022-08-21T13:28:12;3.35;;;1.90;;
64297;SDS011;50639;53.270;7.956;2022-08-21T13:30:41;4.50;;;2.13;;
64297;SDS011;50639;53.270;7.956;2022-08-21T13:33:08;5.88;;;2.42;;
64297;SDS011;50639;53.270;7.956;2022-08-21T13:38:01;5.03;;;2.10;;
64297;SDS011;50639;53.270;7.956;2022-08-21T13:40:31;10.55;;;5.40;;
64297;SDS011;50639;53.270;7.956;2022-08-21T13:42:57;6.78;;;2.80;;
64297;SDS011;50639;53.270;7.956;2022-08-21T13:45:25;5.72;;;2.30;;
64297;SDS011;50639;53.270;7.956;2022-08-21T13:50:18;5.63;;;2.10;;
64297;SDS011;50639;53.270;7.956;2022-08-21T13:52:53;5.20;;;2.00;;
64297;SDS011;50639;53.270;7.956;2022-08-21T13:55:18;4.43;;;2.00;;
64297;SDS011;50639;53.270;7.956;2022-08-21T13:57:44;5.53;;;2.20;;
64297;SDS011;50639;53.270;7.956;2022-08-21T14:00:28;5.37;;;2.10;;
64297;SDS011;50639;53.270;7.956;2022-08-21T14:03:00;5.10;;;2.20;;
64297;SDS011;50639;53.270;7.956;2022-08-21T14:05:28;5.68;;;2.33;;
64297;SDS011;50639;53.270;7.956;2022-08-21T14:10:25;5.93;;;2.10;;
64297;SDS011;50639;53.270;7.956;2022-08-21T14:12:54;5.65;;;2.10;;
64297;SDS011;50639;53.270;7.956;2022-08-21T14:15:23;9.10;;;2.28;;
64297;SDS011;50639;53.270;7.956;2022-08-21T14:17:49;4.30;;;2.00;;
64297;SDS011;50639;53.270;7.956;2022-08-21T14:20:27;7.15;;;2.22;;
64297;SDS011;50639;53.270;7.956;2022-08-21T14:22:52;3.90;;;2.28;;
64297;SDS011;50639;53.270;7.956;2022-08-21T14:30:20;8.10;;;2.30;;
64297;SDS011;50639;53.270;7.956;2022-08-21T14:32:46;6.60;;;2.60;;
64297;SDS011;50639;53.270;7.956;2022-08-21T14:35:12;6.55;;;2.47;;
64297;SDS011;50639;53.270;7.956;2022-08-21T14:37:40;5.03;;;2.28;;
64297;SDS011;50639;53.270;7.956;2022-08-21T14:40:06;4.70;;;1.95;;
64297;SDS011;50639;53.270;7.956;2022-08-21T14:42:31;6.32;;;2.13;;
64297;SDS011;50639;53.270;7.956;2022-08-21T14:44:59;6.22;;;2.40;;
64297;SDS011;50639;53.270;7.956;2022-08-21T14:47:24;6.63;;;2.42;;
64297;SDS011;50639;53.270;7.956;2022-08-21T14:49:50;5.63;;;2.50;;
64297;SDS011;50639;53.270;7.956;2022-08-21T14:52:18;11.75;;;3.03;;
64297;SDS011;50639;53.270;7.956;2022-08-21T14:54:44;7.53;;;2.88;;
64297;SDS011;50639;53.270;7.956;2022-08-21T14:57:10;8.27;;;3.13;;
64297;SDS011;50639;53.270;7.956;2022-08-21T14:59:37;11.55;;;3.15;;
64297;SDS011;50639;53.270;7.956;2022-08-21T15:02:03;7.78;;;2.75;;
64297;SDS011;50639;53.270;7.956;2022-08-21T15:04:31;9.38;;;3.00;;
64297;SDS011;50639;53.270;7.956;2022-08-21T15:06:57;10.38;;;3.00;;
64297;SDS011;50639;53.270;7.956;2022-08-21T15:09:22;10.37;;;2.93;;
64297;SDS011;50639;53.270;7.956;2022-08-21T15:11:48;12.98;;;3.28;;
64297;SDS011;50639;53.270;7.956;2022-08-21T15:14:17;11.05;;;3.08;;
64297;SDS011;50639;53.270;7.956;2022-08-21T15:16:43;7.75;;;2.80;;
64297;SDS011;50639;53.270;7.956;2022-08-21T15:19:08;9.63;;;3.10;;
64297;SDS011;50639;53.270;7.956;2022-08-21T15:21:34;10.27;;;3.20;;
64297;SDS011;50639;53.270;7.956;2022-08-21T15:23:59;11.17;;;3.20;;
64297;SDS011;50639;53.270;7.956;2022-08-21T15:26:24;10.45;;;2.67;;
64297;SDS011;50639;53.270;7.956;2022-08-21T15:28:50;10.95;;;3.15;;
64297;SDS011;50639;53.270;7.956;2022-08-21T15:31:15;11.70;;;3.08;;
64297;SDS011;50639;53.270;7.956;2022-08-21T15:33:41;9.80;;;3.22;;
64297;SDS011;50639;53.270;7.956;2022-08-21T15:36:06;11.38;;;3.42;;
64297;SDS011;50639;53.270;7.956;2022-08-21T15:38:32;13.10;;;3.22;;
64297;SDS011;50639;53.270;7.956;2022-08-21T15:40:57;8.48;;;3.25;;
64297;SDS011;50639;53.270;7.956;2022-08-21T15:43:26;12.47;;;3.60;;
64297;SDS011;50639;53.270;7.956;2022-08-21T15:45:52;7.53;;;2.45;;
64297;SDS011;50639;53.270;7.956;2022-08-21T15:48:17;7.93;;;2.88;;
64297;SDS011;50639;53.270;7.956;2022-08-21T15:50:42;11.00;;;3.05;;
64297;SDS011;50639;53.270;7.956;2022-08-21T15:53:08;12.00;;;3.50;;
64297;SDS011;50639;53.270;7.956;2022-08-21T15:55:33;10.45;;;3.17;;
64297;SDS011;50639;53.270;7.956;2022-08-21T15:57:58;12.20;;;3.45;;
64297;SDS011;50639;53.270;7.956;2022-08-21T16:00:24;12.03;;;3.63;;
64297;SDS011;50639;53.270;7.956;2022-08-21T16:02:51;9.40;;;3.55;;
64297;SDS011;50639;53.270;7.956;2022-08-21T16:05:17;9.18;;;3.00;;
64297;SDS011;50639;53.270;7.956;2022-08-21T16:07:43;9.18;;;3.10;;
64297;SDS011;50639;53.270;7.956;2022-08-21T16:10:10;11.02;;;2.95;;
64297;SDS011;50639;53.270;7.956;2022-08-21T16:12:40;10.98;;;3.22;;
64297;SDS011;50639;53.270;7.956;2022-08-21T16:15:08;9.15;;;2.90;;